sensor_id;sensor_type;location;lat;lon;timestamp;pressure;altitude;pressure_sealevel;temperature;humidity
62354;BME280;48391;49.184;2.418;2022-12-15T00:01:00;100248.13;;;-1.21;100.00
62354;BME280;48391;49.184;2.418;2022-12-15T00:03:45;100242.44;;;-1.12;100.00
62354;BME280;48391;49.184;2.418;2022-12-15T00:06:30;100244.38;;;-1.33;100.00
62354;BME280;48391;49.184;2.418;2022-12-15T00:09:15;100242.16;;;-1.57;100.00
62354;BME280;48391;49.184;2.418;2022-12-15T00:12:00;100256.91;;;-1.39;100.00
62354;BME280;48391;49.184;2.418;2022-12-15T00:14:45;100256.38;;;-1.46;100.00
62354;BME280;48391;49.184;2.418;2022-12-15T00:17:30;100258.59;;;-1.73;100.00
62354;BME280;48391;49.184;2.418;2022-12-15T00:20:15;100259.75;;;-1.61;100.00
62354;BME280;48391;49.184;2.418;2022-12-15T00:23:08;100259.53;;;-1.56;100.00
62354;BME280;48391;49.184;2.418;2022-12-15T00:25:53;100266.50;;;-1.74;100.00
62354;BME280;48391;49.184;2.418;2022-12-15T00:28:38;100268.78;;;-1.85;100.00
62354;BME280;48391;49.184;2.418;2022-12-15T00:31:23;100268.19;;;-1.73;100.00
62354;BME280;48391;49.184;2.418;2022-12-15T00:34:08;100267.63;;;-1.80;100.00
62354;BME280;48391;49.184;2.418;2022-12-15T00:36:53;100251.84;;;-1.77;100.00
62354;BME280;48391;49.184;2.418;2022-12-15T00:39:38;100254.97;;;-1.87;100.00
62354;BME280;48391;49.184;2.418;2022-12-15T00:42:05;100254.44;;;-1.77;100.00
62354;BME280;48391;49.184;2.418;2022-12-15T00:44:32;100266.81;;;-1.80;100.00
62354;BME280;48391;49.184;2.418;2022-12-15T00:46:58;100275.16;;;-1.91;100.00
62354;BME280;48391;49.184;2.418;2022-12-15T00:49:26;100284.44;;;-1.85;100.00
62354;BME280;48391;49.184;2.418;2022-12-15T00:52:12;100284.44;;;-1.85;100.00
62354;BME280;48391;49.184;2.418;2022-12-15T00:54:58;100280.06;;;-2.02;100.00
62354;BME280;48391;49.184;2.418;2022-12-15T00:57:43;100285.31;;;-2.03;100.00
62354;BME280;48391;49.184;2.418;2022-12-15T01:00:28;100285.28;;;-2.02;100.00
62354;BME280;48391;49.184;2.418;2022-12-15T01:03:22;100287.09;;;-2.04;100.00
62354;BME280;48391;49.184;2.418;2022-12-15T01:06:17;100287.19;;;-2.24;100.00
62354;BME280;48391;49.184;2.418;2022-12-15T01:09:03;100288.75;;;-2.20;100.00
62354;BME280;48391;49.184;2.418;2022-12-15T01:11:49;100291.06;;;-2.14;100.00
62354;BME280;48391;49.184;2.418;2022-12-15T01:14:34;100273.88;;;-2.18;100.00
62354;BME280;48391;49.184;2.418;2022-12-15T09:21:56;100446.41;;;-2.66;100.00
62354;BME280;48391;49.184;2.418;2022-12-15T09:24:23;100456.22;;;-2.32;100.00
62354;BME280;48391;49.184;2.418;2022-12-15T09:26:49;100454.13;;;-2.05;100.00
62354;BME280;48391;49.184;2.418;2022-12-15T09:29:15;100460.22;;;-1.86;100.00
62354;BME280;48391;49.184;2.418;2022-12-15T09:31:41;100461.91;;;-1.66;100.00
62354;BME280;48391;49.184;2.418;2022-12-15T09:34:13;100457.69;;;-1.50;100.00
62354;BME280;48391;49.184;2.418;2022-12-15T09:36:40;100458.47;;;-1.31;100.00
62354;BME280;48391;49.184;2.418;2022-12-15T09:39:07;100461.03;;;-1.30;100.00
62354;BME280;48391;49.184;2.418;2022-12-15T09:41:35;100456.41;;;-1.06;100.00
62354;BME280;48391;49.184;2.418;2022-12-15T09:52:15;100473.00;;;-0.56;100.00
62354;BME280;48391;49.184;2.418;2022-12-15T09:54:42;100464.72;;;-0.47;100.00
62354;BME280;48391;49.184;2.418;2022-12-15T09:57:18;100469.16;;;-0.32;100.00
62354;BME280;48391;49.184;2.418;2022-12-15T10:00:47;100467.25;;;-0.28;100.00
62354;BME280;48391;49.184;2.418;2022-12-15T10:06:02;100479.09;;;-0.38;100.00
62354;BME280;48391;49.184;2.418;2022-12-15T10:08:36;100478.88;;;-0.51;100.00
62354;BME280;48391;49.184;2.418;2022-12-15T10:16:54;100466.06;;;-0.40;100.00
62354;BME280;48391;49.184;2.418;2022-12-15T10:22:02;100480.75;;;0.13;100.00
62354;BME280;48391;49.184;2.418;2022-12-15T10:24:30;100472.03;;;-0.04;100.00
62354;BME280;48391;49.184;2.418;2022-12-15T10:27:19;100477.59;;;0.39;100.00
62354;BME280;48391;49.184;2.418;2022-12-15T10:30:00;100478.75;;;0.18;100.00
62354;BME280;48391;49.184;2.418;2022-12-15T10:34:56;100470.00;;;0.81;100.00
62354;BME280;48391;49.184;2.418;2022-12-15T10:37:22;100472.97;;;0.75;100.00
62354;BME280;48391;49.184;2.418;2022-12-15T10:39:50;100468.88;;;0.85;100.00
62354;BME280;48391;49.184;2.418;2022-12-15T10:42:26;100448.13;;;0.96;100.00
62354;BME280;48391;49.184;2.418;2022-12-15T10:44:54;100446.13;;;1.01;nan
62354;BME280;48391;49.184;2.418;2022-12-15T10:58:00;100436.78;;;1.11;100.00
62354;BME280;48391;49.184;2.418;2022-12-15T11:00:29;100437.53;;;1.13;100.00
62354;BME280;48391;49.184;2.418;2022-12-15T11:02:56;100422.13;;;0.93;100.00
62354;BME280;48391;49.184;2.418;2022-12-15T11:05:23;100427.22;;;0.65;100.00
62354;BME280;48391;49.184;2.418;2022-12-15T11:10:30;100428.75;;;0.69;100.00
62354;BME280;48391;49.184;2.418;2022-12-15T11:13:19;100417.38;;;0.84;100.00
62354;BME280;48391;49.184;2.418;2022-12-15T11:15:54;100415.28;;;0.75;100.00
62354;BME280;48391;49.184;2.418;2022-12-15T11:22:20;100402.56;;;0.99;100.00
62354;BME280;48391;49.184;2.418;2022-12-15T11:24:38;100413.84;;;0.85;100.00
62354;BME280;48391;49.184;2.418;2022-12-15T11:30:10;100398.91;;;1.01;100.00
62354;BME280;48391;49.184;2.418;2022-12-15T11:32:41;100385.34;;;1.09;100.00
62354;BME280;48391;49.184;2.418;2022-12-15T11:35:15;100387.56;;;1.30;100.00
62354;BME280;48391;49.184;2.418;2022-12-15T11:37:46;100383.50;;;1.11;100.00
62354;BME280;48391;49.184;2.418;2022-12-15T11:40:37;100382.38;;;1.15;100.00
62354;BME280;48391;49.184;2.418;2022-12-15T11:51:23;100354.84;;;1.36;100.00
62354;BME280;48391;49.184;2.418;2022-12-15T11:56:38;100343.28;;;1.10;100.00
62354;BME280;48391;49.184;2.418;2022-12-15T12:12:51;100319.28;;;2.41;100.00
62354;BME280;48391;49.184;2.418;2022-12-15T12:18:46;100327.47;;;3.15;95.98
62354;BME280;48391;49.184;2.418;2022-12-15T12:21:26;100315.03;;;3.42;97.35
62354;BME280;48391;49.184;2.418;2022-12-15T12:26:55;100309.75;;;3.42;93.28
62354;BME280;48391;49.184;2.418;2022-12-15T12:35:41;100299.75;;;4.09;88.43
62354;BME280;48391;49.184;2.418;2022-12-15T12:38:14;61489.81;;;-142.61;100.00
62354;BME280;48391;49.184;2.418;2022-12-15T12:43:54;61489.81;;;-142.61;100.00
62354;BME280;48391;49.184;2.418;2022-12-15T12:46:44;61489.81;;;-142.61;100.00
62354;BME280;48391;49.184;2.418;2022-12-15T12:49:29;61489.81;;;-142.61;100.00
62354;BME280;48391;49.184;2.418;2022-12-15T12:52:03;61489.81;;;-142.61;100.00
62354;BME280;48391;49.184;2.418;2022-12-15T12:54:41;61489.81;;;-142.61;100.00
62354;BME280;48391;49.184;2.418;2022-12-15T13:03:19;61489.81;;;-142.61;100.00
62354;BME280;48391;49.184;2.418;2022-12-15T13:05:48;61489.81;;;-142.61;100.00
62354;BME280;48391;49.184;2.418;2022-12-15T13:08:15;61489.81;;;-142.61;100.00
62354;BME280;48391;49.184;2.418;2022-12-15T13:10:44;61489.81;;;-142.61;100.00
62354;BME280;48391;49.184;2.418;2022-12-15T13:16:17;61489.81;;;-142.61;100.00
62354;BME280;48391;49.184;2.418;2022-12-15T13:19:02;61489.81;;;-142.61;100.00
62354;BME280;48391;49.184;2.418;2022-12-15T13:30:35;61489.81;;;-142.61;100.00
62354;BME280;48391;49.184;2.418;2022-12-15T13:32:44;61489.81;;;-142.61;100.00
62354;BME280;48391;49.184;2.418;2022-12-15T13:37:56;61489.81;;;-142.61;100.00
62354;BME280;48391;49.184;2.418;2022-12-15T13:45:41;61489.81;;;-142.61;100.00
62354;BME280;48391;49.184;2.418;2022-12-15T13:48:40;61489.81;;;-142.61;100.00
62354;BME280;48391;49.184;2.418;2022-12-15T13:51:33;61489.81;;;-142.61;100.00
62354;BME280;48391;49.184;2.418;2022-12-15T13:54:09;61489.81;;;-142.61;100.00
62354;BME280;48391;49.184;2.418;2022-12-15T13:59:40;61489.81;;;-142.61;100.00
62354;BME280;48391;49.184;2.418;2022-12-15T14:02:24;61489.81;;;-142.61;100.00
62354;BME280;48391;49.184;2.418;2022-12-15T14:07:37;61489.81;;;-142.61;100.00
62354;BME280;48391;49.184;2.418;2022-12-15T14:10:06;61489.81;;;-142.61;100.00
62354;BME280;48391;49.184;2.418;2022-12-15T14:12:41;61489.81;;;-142.61;100.00
62354;BME280;48391;49.184;2.418;2022-12-15T14:17:50;100233.06;;;3.96;nan
62354;BME280;48391;49.184;2.418;2022-12-15T14:20:39;100220.16;;;4.04;62.53
62354;BME280;48391;49.184;2.418;2022-12-15T14:23:16;100225.06;;;4.21;62.54
62354;BME280;48391;49.184;2.418;2022-12-15T14:25:54;100228.22;;;3.90;62.53
62354;BME280;48391;49.184;2.418;2022-12-15T14:28:29;100229.81;;;3.43;62.33
62354;BME280;48391;49.184;2.418;2022-12-15T14:30:59;100229.75;;;3.20;63.12
62354;BME280;48391;49.184;2.418;2022-12-15T14:33:27;100236.06;;;3.42;61.71
62354;BME280;48391;49.184;2.418;2022-12-15T14:35:57;100232.47;;;3.43;61.22
62354;BME280;48391;49.184;2.418;2022-12-15T14:38:37;100223.19;;;3.51;63.18
62354;BME280;48391;49.184;2.418;2022-12-15T14:41:04;100234.09;;;3.21;67.32
62354;BME280;48391;49.184;2.418;2022-12-15T14:43:36;100226.59;;;3.27;66.41
62354;BME280;48391;49.184;2.418;2022-12-15T14:46:14;100226.38;;;3.18;68.30
62354;BME280;48391;49.184;2.418;2022-12-15T14:48:55;100245.84;;;3.40;64.94
62354;BME280;48391;49.184;2.418;2022-12-15T14:51:23;100251.88;;;3.17;71.46
62354;BME280;48391;49.184;2.418;2022-12-15T14:53:52;100259.34;;;3.11;72.20
62354;BME280;48391;49.184;2.418;2022-12-15T15:01:57;100254.41;;;3.06;78.28
62354;BME280;48391;49.184;2.418;2022-12-15T15:04:33;100263.03;;;3.08;78.64
62354;BME280;48391;49.184;2.418;2022-12-15T15:07:05;100268.59;;;3.04;82.49
62354;BME280;48391;49.184;2.418;2022-12-15T15:09:38;100273.34;;;2.99;85.73
62354;BME280;48391;49.184;2.418;2022-12-15T15:12:16;100277.53;;;2.89;89.48
62354;BME280;48391;49.184;2.418;2022-12-15T15:14:47;100287.66;;;2.95;90.71
62354;BME280;48391;49.184;2.418;2022-12-15T15:18:02;100281.22;;;2.99;91.36
62354;BME280;48391;49.184;2.418;2022-12-15T15:22:46;100291.22;;;2.94;93.88
62354;BME280;48391;49.184;2.418;2022-12-15T15:25:40;100292.47;;;2.88;95.15
62354;BME280;48391;49.184;2.418;2022-12-15T15:28:21;100291.94;;;2.96;94.67
62354;BME280;48391;49.184;2.418;2022-12-15T15:31:00;100290.72;;;2.62;98.06
62354;BME280;48391;49.184;2.418;2022-12-15T15:33:32;100297.13;;;2.58;99.17
62354;BME280;48391;49.184;2.418;2022-12-15T15:36:00;100290.94;;;2.59;100.00
62354;BME280;48391;49.184;2.418;2022-12-15T15:38:37;100290.53;;;2.65;100.00
62354;BME280;48391;49.184;2.418;2022-12-15T15:41:16;100301.25;;;2.62;100.00
62354;BME280;48391;49.184;2.418;2022-12-15T15:43:44;100310.38;;;2.56;100.00
62354;BME280;48391;49.184;2.418;2022-12-15T15:46:17;100307.53;;;2.59;100.00
62354;BME280;48391;49.184;2.418;2022-12-15T15:48:52;100320.84;;;2.44;100.00
62354;BME280;48391;49.184;2.418;2022-12-15T15:51:20;100309.81;;;2.39;100.00
62354;BME280;48391;49.184;2.418;2022-12-15T15:53:46;100318.19;;;2.31;100.00
62354;BME280;48391;49.184;2.418;2022-12-15T15:56:14;100325.56;;;2.39;100.00
62354;BME280;48391;49.184;2.418;2022-12-15T15:58:41;100323.34;;;2.33;100.00
62354;BME280;48391;49.184;2.418;2022-12-15T16:01:09;100328.03;;;2.28;100.00
62354;BME280;48391;49.184;2.418;2022-12-15T16:03:35;100335.41;;;2.09;100.00
62354;BME280;48391;49.184;2.418;2022-12-15T16:06:08;100334.34;;;2.25;100.00
62354;BME280;48391;49.184;2.418;2022-12-15T16:08:36;100338.75;;;2.25;100.00
62354;BME280;48391;49.184;2.418;2022-12-15T16:11:03;100334.19;;;2.14;100.00
62354;BME280;48391;49.184;2.418;2022-12-15T16:13:29;100343.38;;;2.21;100.00
62354;BME280;48391;49.184;2.418;2022-12-15T16:15:56;100343.84;;;2.14;100.00
62354;BME280;48391;49.184;2.418;2022-12-15T16:18:22;100358.19;;;2.22;100.00
62354;BME280;48391;49.184;2.418;2022-12-15T16:20:50;100361.19;;;2.16;100.00
62354;BME280;48391;49.184;2.418;2022-12-15T16:23:27;100366.84;;;2.10;100.00
62354;BME280;48391;49.184;2.418;2022-12-15T16:25:56;100369.09;;;2.02;100.00
62354;BME280;48391;49.184;2.418;2022-12-15T16:28:29;100370.13;;;2.00;100.00
62354;BME280;48391;49.184;2.418;2022-12-15T16:30:56;100379.06;;;1.97;100.00
62354;BME280;48391;49.184;2.418;2022-12-15T16:33:26;100382.34;;;2.01;100.00
62354;BME280;48391;49.184;2.418;2022-12-15T16:35:52;100382.94;;;1.92;100.00
62354;BME280;48391;49.184;2.418;2022-12-15T16:38:22;100376.56;;;1.82;100.00
62354;BME280;48391;49.184;2.418;2022-12-15T16:40:50;100378.59;;;1.77;100.00
62354;BME280;48391;49.184;2.418;2022-12-15T16:43:25;100380.38;;;1.76;100.00
62354;BME280;48391;49.184;2.418;2022-12-15T16:45:52;100389.94;;;1.77;100.00
62354;BME280;48391;49.184;2.418;2022-12-15T16:48:19;100391.44;;;1.81;100.00
62354;BME280;48391;49.184;2.418;2022-12-15T16:50:53;100400.44;;;1.63;100.00
62354;BME280;48391;49.184;2.418;2022-12-15T16:53:25;100403.25;;;1.74;100.00
62354;BME280;48391;49.184;2.418;2022-12-15T16:55:54;100411.03;;;1.61;100.00
62354;BME280;48391;49.184;2.418;2022-12-15T16:58:21;100427.25;;;1.68;100.00
62354;BME280;48391;49.184;2.418;2022-12-15T17:00:50;100418.69;;;1.50;100.00
62354;BME280;48391;49.184;2.418;2022-12-15T17:03:17;100424.97;;;1.48;100.00
62354;BME280;48391;49.184;2.418;2022-12-15T17:05:48;100420.69;;;1.61;nan
62354;BME280;48391;49.184;2.418;2022-12-15T17:11:13;100421.53;;;1.47;100.00
62354;BME280;48391;49.184;2.418;2022-12-15T17:13:44;100427.59;;;1.48;100.00
62354;BME280;48391;49.184;2.418;2022-12-15T17:16:12;100429.06;;;1.38;100.00
62354;BME280;48391;49.184;2.418;2022-12-15T17:18:39;100438.91;;;1.34;100.00
62354;BME280;48391;49.184;2.418;2022-12-15T17:21:27;100434.25;;;1.39;100.00
62354;BME280;48391;49.184;2.418;2022-12-15T17:23:57;100437.88;;;1.37;100.00
62354;BME280;48391;49.184;2.418;2022-12-15T17:26:26;100437.69;;;1.26;100.00
62354;BME280;48391;49.184;2.418;2022-12-15T17:28:55;100432.16;;;1.30;100.00
62354;BME280;48391;49.184;2.418;2022-12-15T17:31:22;100439.63;;;1.22;100.00
62354;BME280;48391;49.184;2.418;2022-12-15T17:33:49;100432.91;;;1.32;100.00
62354;BME280;48391;49.184;2.418;2022-12-15T17:36:24;100433.19;;;1.28;100.00
62354;BME280;48391;49.184;2.418;2022-12-15T17:38:54;100439.63;;;1.22;100.00
62354;BME280;48391;49.184;2.418;2022-12-15T17:41:21;100432.91;;;1.32;100.00
62354;BME280;48391;49.184;2.418;2022-12-15T17:43:48;100432.22;;;1.15;100.00
62354;BME280;48391;49.184;2.418;2022-12-15T17:46:15;100427.81;;;1.15;100.00
62354;BME280;48391;49.184;2.418;2022-12-15T17:48:41;100416.56;;;1.13;100.00
62354;BME280;48391;49.184;2.418;2022-12-15T17:51:14;100417.41;;;1.14;100.00
62354;BME280;48391;49.184;2.418;2022-12-15T17:53:42;100410.38;;;1.14;100.00
62354;BME280;48391;49.184;2.418;2022-12-15T17:56:11;100409.56;;;1.14;100.00
62354;BME280;48391;49.184;2.418;2022-12-15T17:58:38;100420.09;;;1.12;100.00
62354;BME280;48391;49.184;2.418;2022-12-15T18:01:04;100424.88;;;1.06;100.00
62354;BME280;48391;49.184;2.418;2022-12-15T18:03:30;100428.31;;;1.06;100.00
62354;BME280;48391;49.184;2.418;2022-12-15T18:05:57;100426.47;;;1.08;100.00
62354;BME280;48391;49.184;2.418;2022-12-15T18:08:25;100437.41;;;1.01;100.00
62354;BME280;48391;49.184;2.418;2022-12-15T18:10:57;100428.88;;;0.97;100.00
62354;BME280;48391;49.184;2.418;2022-12-15T18:13:26;100441.22;;;0.95;100.00
62354;BME280;48391;49.184;2.418;2022-12-15T18:15:53;100439.44;;;0.96;100.00
62354;BME280;48391;49.184;2.418;2022-12-15T18:18:21;100445.53;;;0.96;100.00
62354;BME280;48391;49.184;2.418;2022-12-15T18:20:48;100444.59;;;0.97;100.00
62354;BME280;48391;49.184;2.418;2022-12-15T18:23:20;100450.34;;;0.88;100.00
62354;BME280;48391;49.184;2.418;2022-12-15T18:25:47;100447.13;;;0.99;100.00
62354;BME280;48391;49.184;2.418;2022-12-15T18:28:23;100445.09;;;0.88;100.00
62354;BME280;48391;49.184;2.418;2022-12-15T18:30:52;100448.25;;;0.79;100.00
62354;BME280;48391;49.184;2.418;2022-12-15T18:33:20;100450.69;;;0.98;100.00
62354;BME280;48391;49.184;2.418;2022-12-15T18:35:49;100455.53;;;0.74;100.00
62354;BME280;48391;49.184;2.418;2022-12-15T18:38:22;100452.06;;;0.89;100.00
62354;BME280;48391;49.184;2.418;2022-12-15T18:40:50;100456.69;;;0.84;100.00
62354;BME280;48391;49.184;2.418;2022-12-15T18:43:20;100467.72;;;0.75;100.00
62354;BME280;48391;49.184;2.418;2022-12-15T18:45:46;100468.59;;;0.60;100.00
62354;BME280;48391;49.184;2.418;2022-12-15T18:48:23;100468.59;;;0.60;100.00
62354;BME280;48391;49.184;2.418;2022-12-15T18:50:51;100468.59;;;0.60;100.00
62354;BME280;48391;49.184;2.418;2022-12-15T18:55:50;100468.16;;;0.67;100.00
62354;BME280;48391;49.184;2.418;2022-12-15T18:58:29;100473.88;;;0.58;100.00
62354;BME280;48391;49.184;2.418;2022-12-15T19:00:57;100471.53;;;0.69;100.00
62354;BME280;48391;49.184;2.418;2022-12-15T19:03:24;100471.09;;;0.46;100.00
62354;BME280;48391;49.184;2.418;2022-12-15T19:08:36;100478.75;;;0.18;100.00
62354;BME280;48391;49.184;2.418;2022-12-15T19:11:14;61489.81;;;-142.61;100.00
62354;BME280;48391;49.184;2.418;2022-12-15T19:13:44;61489.81;;;-142.61;100.00
62354;BME280;48391;49.184;2.418;2022-12-15T19:16:19;61489.81;;;-142.61;100.00
62354;BME280;48391;49.184;2.418;2022-12-15T19:18:45;61489.81;;;-142.61;100.00
62354;BME280;48391;49.184;2.418;2022-12-15T19:21:33;61489.81;;;-142.61;100.00
62354;BME280;48391;49.184;2.418;2022-12-15T19:24:22;61489.81;;;-142.61;100.00
62354;BME280;48391;49.184;2.418;2022-12-15T19:27:17;61489.81;;;-142.61;100.00
62354;BME280;48391;49.184;2.418;2022-12-15T19:29:48;61489.81;;;-142.61;100.00
62354;BME280;48391;49.184;2.418;2022-12-15T19:32:15;61489.81;;;-142.61;100.00
62354;BME280;48391;49.184;2.418;2022-12-15T19:34:42;61489.81;;;-142.61;100.00
62354;BME280;48391;49.184;2.418;2022-12-15T19:37:28;61489.81;;;-142.61;100.00
62354;BME280;48391;49.184;2.418;2022-12-15T19:39:57;61489.81;;;-142.61;100.00
62354;BME280;48391;49.184;2.418;2022-12-15T19:42:29;61489.81;;;-142.61;100.00
62354;BME280;48391;49.184;2.418;2022-12-15T19:44:55;61489.81;;;-142.61;100.00
62354;BME280;48391;49.184;2.418;2022-12-15T19:47:22;61489.81;;;-142.61;100.00
62354;BME280;48391;49.184;2.418;2022-12-15T19:49:48;61489.81;;;-142.61;100.00
62354;BME280;48391;49.184;2.418;2022-12-15T19:52:15;61489.81;;;-142.61;100.00
62354;BME280;48391;49.184;2.418;2022-12-15T19:54:42;61489.81;;;-142.61;100.00
62354;BME280;48391;49.184;2.418;2022-12-15T19:57:15;61489.81;;;-142.61;100.00
62354;BME280;48391;49.184;2.418;2022-12-15T19:59:42;61489.81;;;-142.61;100.00
62354;BME280;48391;49.184;2.418;2022-12-15T20:02:16;61489.81;;;-142.61;100.00
62354;BME280;48391;49.184;2.418;2022-12-15T20:04:44;61489.81;;;-142.61;100.00
62354;BME280;48391;49.184;2.418;2022-12-15T20:07:18;61489.81;;;-142.61;100.00
62354;BME280;48391;49.184;2.418;2022-12-15T20:09:48;61489.81;;;-142.61;100.00
62354;BME280;48391;49.184;2.418;2022-12-15T20:12:16;61489.81;;;-142.61;100.00
62354;BME280;48391;49.184;2.418;2022-12-15T20:14:44;61489.81;;;-142.61;100.00
62354;BME280;48391;49.184;2.418;2022-12-15T20:17:10;61489.81;;;-142.61;100.00
62354;BME280;48391;49.184;2.418;2022-12-15T20:19:36;61489.81;;;-142.61;100.00
62354;BME280;48391;49.184;2.418;2022-12-15T20:22:03;61489.81;;;-142.61;100.00
62354;BME280;48391;49.184;2.418;2022-12-15T20:24:30;61489.81;;;-142.61;100.00
62354;BME280;48391;49.184;2.418;2022-12-15T20:26:58;61489.81;;;-142.61;100.00
62354;BME280;48391;49.184;2.418;2022-12-15T20:29:27;61489.81;;;-142.61;100.00
62354;BME280;48391;49.184;2.418;2022-12-15T20:31:55;61489.81;;;-142.61;100.00
62354;BME280;48391;49.184;2.418;2022-12-15T20:34:22;61489.81;;;-142.61;100.00
62354;BME280;48391;49.184;2.418;2022-12-15T20:36:48;61489.81;;;-142.61;100.00
62354;BME280;48391;49.184;2.418;2022-12-15T20:39:24;61489.81;;;-142.61;100.00
62354;BME280;48391;49.184;2.418;2022-12-15T20:41:52;61489.81;;;-142.61;100.00
62354;BME280;48391;49.184;2.418;2022-12-15T20:44:18;61489.81;;;-142.61;100.00
62354;BME280;48391;49.184;2.418;2022-12-15T20:46:45;61489.81;;;-142.61;100.00
62354;BME280;48391;49.184;2.418;2022-12-15T20:49:17;61489.81;;;-142.61;100.00
62354;BME280;48391;49.184;2.418;2022-12-15T20:51:43;61489.81;;;-142.61;100.00
62354;BME280;48391;49.184;2.418;2022-12-15T20:54:16;61489.81;;;-142.61;100.00
62354;BME280;48391;49.184;2.418;2022-12-15T20:56:43;61489.81;;;-142.61;100.00
62354;BME280;48391;49.184;2.418;2022-12-15T20:59:09;61489.81;;;-142.61;100.00
62354;BME280;48391;49.184;2.418;2022-12-15T21:01:37;61489.81;;;-142.61;100.00
62354;BME280;48391;49.184;2.418;2022-12-15T21:04:27;61489.81;;;-142.61;100.00
62354;BME280;48391;49.184;2.418;2022-12-15T21:06:54;61489.81;;;-142.61;100.00
62354;BME280;48391;49.184;2.418;2022-12-15T21:09:21;61489.81;;;-142.61;100.00
62354;BME280;48391;49.184;2.418;2022-12-15T21:11:48;61489.81;;;-142.61;100.00
62354;BME280;48391;49.184;2.418;2022-12-15T21:14:19;61489.81;;;-142.61;100.00
62354;BME280;48391;49.184;2.418;2022-12-15T21:16:45;61489.81;;;-142.61;100.00
62354;BME280;48391;49.184;2.418;2022-12-15T21:19:12;61489.81;;;-142.61;100.00
62354;BME280;48391;49.184;2.418;2022-12-15T21:21:43;61489.81;;;-142.61;100.00
62354;BME280;48391;49.184;2.418;2022-12-15T21:26:41;61489.81;;;-142.61;100.00
62354;BME280;48391;49.184;2.418;2022-12-15T21:29:22;61489.81;;;-142.61;100.00
62354;BME280;48391;49.184;2.418;2022-12-15T21:31:49;61489.81;;;-142.61;100.00
62354;BME280;48391;49.184;2.418;2022-12-15T21:34:15;61489.81;;;-142.61;100.00
62354;BME280;48391;49.184;2.418;2022-12-15T21:36:43;61489.81;;;-142.61;100.00
62354;BME280;48391;49.184;2.418;2022-12-15T21:39:34;61489.81;;;-142.61;100.00
62354;BME280;48391;49.184;2.418;2022-12-15T21:42:10;61489.81;;;-142.61;100.00
62354;BME280;48391;49.184;2.418;2022-12-15T21:44:37;61489.81;;;-142.61;100.00
62354;BME280;48391;49.184;2.418;2022-12-15T21:47:26;61489.81;;;-142.61;100.00
62354;BME280;48391;49.184;2.418;2022-12-15T21:50:11;61489.81;;;-142.61;100.00
62354;BME280;48391;49.184;2.418;2022-12-15T21:52:37;61489.81;;;-142.61;100.00
62354;BME280;48391;49.184;2.418;2022-12-15T21:55:18;61489.81;;;-142.61;100.00
62354;BME280;48391;49.184;2.418;2022-12-15T21:57:44;61489.81;;;-142.61;100.00
62354;BME280;48391;49.184;2.418;2022-12-15T22:00:12;61489.81;;;-142.61;100.00
62354;BME280;48391;49.184;2.418;2022-12-15T22:02:39;61489.81;;;-142.61;100.00
62354;BME280;48391;49.184;2.418;2022-12-15T22:05:27;61489.81;;;-142.61;100.00
62354;BME280;48391;49.184;2.418;2022-12-15T22:07:59;100585.75;;;-2.32;100.00
62354;BME280;48391;49.184;2.418;2022-12-15T22:10:26;100579.34;;;-2.25;100.00
62354;BME280;48391;49.184;2.418;2022-12-15T22:12:53;100585.94;;;-2.17;100.00
62354;BME280;48391;49.184;2.418;2022-12-15T22:15:22;100584.47;;;-2.02;100.00
62354;BME280;48391;49.184;2.418;2022-12-15T22:17:49;100588.56;;;-2.17;100.00
62354;BME280;48391;49.184;2.418;2022-12-15T22:20:17;100593.91;;;-2.40;100.00
62354;BME280;48391;49.184;2.418;2022-12-15T22:22:44;100592.34;;;-2.24;100.00
62354;BME280;48391;49.184;2.418;2022-12-15T22:25:19;100597.84;;;-2.10;100.00
62354;BME280;48391;49.184;2.418;2022-12-15T22:27:46;100600.63;;;-2.14;100.00
62354;BME280;48391;49.184;2.418;2022-12-15T22:30:23;100602.13;;;-2.09;100.00
62354;BME280;48391;49.184;2.418;2022-12-15T22:32:50;100604.75;;;-1.89;100.00
62354;BME280;48391;49.184;2.418;2022-12-15T22:35:18;100602.75;;;-1.84;100.00
62354;BME280;48391;49.184;2.418;2022-12-15T22:37:45;100608.03;;;-1.65;100.00
62354;BME280;48391;49.184;2.418;2022-12-15T22:40:13;100608.91;;;-1.64;100.00
62354;BME280;48391;49.184;2.418;2022-12-15T22:42:43;100610.47;;;-1.60;100.00
62354;BME280;48391;49.184;2.418;2022-12-15T22:45:15;100615.69;;;-1.60;100.00
62354;BME280;48391;49.184;2.418;2022-12-15T22:47:43;100605.09;;;-1.57;100.00
62354;BME280;48391;49.184;2.418;2022-12-15T22:50:22;100618.88;;;-1.54;100.00
62354;BME280;48391;49.184;2.418;2022-12-15T22:52:48;100614.91;;;-1.62;100.00
62354;BME280;48391;49.184;2.418;2022-12-15T22:55:16;100612.91;;;-1.57;100.00
62354;BME280;48391;49.184;2.418;2022-12-15T22:58:09;100613.78;;;-1.57;100.00
62354;BME280;48391;49.184;2.418;2022-12-15T23:00:33;100612.59;;;-1.50;100.00
62354;BME280;48391;49.184;2.418;2022-12-15T23:03:00;100617.44;;;-1.81;100.00
62354;BME280;48391;49.184;2.418;2022-12-15T23:05:27;100625.63;;;-1.89;100.00
62354;BME280;48391;49.184;2.418;2022-12-15T23:07:53;100635.53;;;-1.77;100.00
62354;BME280;48391;49.184;2.418;2022-12-15T23:10:20;100630.69;;;-1.86;100.00
62354;BME280;48391;49.184;2.418;2022-12-15T23:13:05;100633.44;;;-1.89;100.00
62354;BME280;48391;49.184;2.418;2022-12-15T23:15:32;100635.72;;;-2.01;100.00
62354;BME280;48391;49.184;2.418;2022-12-15T23:18:17;100631.75;;;-2.10;100.00
62354;BME280;48391;49.184;2.418;2022-12-15T23:20:43;100632.53;;;-2.08;100.00
62354;BME280;48391;49.184;2.418;2022-12-15T23:23:10;100638.91;;;-2.15;100.00
62354;BME280;48391;49.184;2.418;2022-12-15T23:25:36;100642.38;;;-2.14;100.00
62354;BME280;48391;49.184;2.418;2022-12-15T23:28:02;100637.94;;;-2.12;100.00
62354;BME280;48391;49.184;2.418;2022-12-15T23:30:29;100638.03;;;-2.35;100.00